createdAt,value
2023-03-10T00:02:22.513Z,98286.38
2023-03-10T00:04:51.309Z,98292.34
2023-03-10T00:07:20.898Z,98286.38
2023-03-10T00:09:49.080Z,98287.16
2023-03-10T00:12:17.057Z,98287.16
2023-03-10T00:14:44.958Z,98289.09
2023-03-10T00:17:12.822Z,98282.31
2023-03-10T00:19:41.021Z,98295.31
2023-03-10T00:22:08.945Z,98289.88
2023-03-10T00:24:38.221Z,98275.53
2023-03-10T00:27:06.253Z,98275.81
2023-03-10T00:29:34.552Z,98279.03
2023-03-10T00:32:02.468Z,98280.16
2023-03-10T00:34:30.394Z,98279.59
2023-03-10T00:36:58.251Z,98280.44
2023-03-10T00:39:26.401Z,98285.84
2023-03-10T00:41:55.693Z,98281.50
2023-03-10T00:44:23.583Z,98287.75
2023-03-10T00:46:51.452Z,98283.66
2023-03-10T00:49:19.629Z,98286.94
2023-03-10T00:51:47.532Z,98288.00
2023-03-10T00:54:15.409Z,98275.53
2023-03-10T00:56:43.303Z,98277.16
2023-03-10T00:59:13.149Z,98274.44
2023-03-10T01:01:42.179Z,98283.41
2023-03-10T01:04:12.327Z,98280.69
2023-03-10T01:06:40.304Z,98283.41
2023-03-10T01:09:08.511Z,98285.03
2023-03-10T01:11:36.489Z,98279.59
2023-03-10T01:14:06.013Z,98274.19
2023-03-10T01:16:35.360Z,98281.25
2023-03-10T01:19:03.617Z,98278.78
2023-03-10T01:21:32.617Z,98275.25
2023-03-10T01:24:00.545Z,98280.16
2023-03-10T01:26:28.549Z,98284.47
2023-03-10T01:28:56.693Z,98285.28
2023-03-10T01:31:24.720Z,98293.16
2023-03-10T01:33:54.066Z,98283.94
2023-03-10T01:36:23.092Z,98281.50
2023-03-10T01:38:51.297Z,98279.59
2023-03-10T01:41:19.493Z,98282.59
2023-03-10T01:43:47.720Z,98276.06
2023-03-10T01:46:35.543Z,98266.31
2023-03-10T01:49:07.101Z,98267.94
2023-03-10T01:51:35.927Z,98281.50
2023-03-10T01:54:04.175Z,98282.06
2023-03-10T01:56:32.081Z,98263.91
2023-03-10T01:59:00.275Z,98265.78
2023-03-10T02:01:28.172Z,98277.47
2023-03-10T02:03:58.715Z,98282.06
2023-03-10T02:06:28.069Z,98274.47
2023-03-10T02:08:57.938Z,98285.59
2023-03-10T02:11:25.925Z,98293.72
2023-03-10T02:13:54.000Z,98294.00
2023-03-10T02:16:22.344Z,98295.06
2023-03-10T02:18:50.606Z,98290.47
2023-03-10T02:21:24.545Z,98149.03
2023-03-10T02:24:01.298Z,98280.44
2023-03-10T02:26:34.893Z,98281.50
2023-03-10T02:29:05.656Z,98280.69
2023-03-10T02:31:33.580Z,98270.66
2023-03-10T02:34:01.505Z,98268.50
2023-03-10T02:36:29.505Z,98280.16
2023-03-10T02:38:57.671Z,98267.69
2023-03-10T02:41:27.778Z,98268.50
2023-03-10T02:43:56.048Z,98269.84
2023-03-10T02:46:25.423Z,98268.50
2023-03-10T02:48:53.771Z,98273.13
2023-03-10T02:51:24.048Z,98267.69
2023-03-10T02:53:51.924Z,98265.78
2023-03-10T02:56:19.921Z,98257.66
2023-03-10T02:58:48.081Z,98258.19
2023-03-10T03:01:16.104Z,98253.31
2023-03-10T03:03:45.433Z,98256.53
2023-03-10T03:06:13.547Z,98249.53
2023-03-10T03:08:41.883Z,98255.75
2023-03-10T03:11:09.863Z,98255.75
2023-03-10T03:13:37.800Z,98254.13
2023-03-10T03:16:07.150Z,98244.09
2023-03-10T03:18:35.085Z,98239.75
2023-03-10T03:21:06.855Z,98250.34
2023-03-10T03:23:34.814Z,98236.78
2023-03-10T03:26:02.719Z,98247.63
2023-03-10T03:28:30.627Z,98254.66
2023-03-10T03:30:59.152Z,98245.69
2023-03-10T03:33:27.040Z,98244.09
2023-03-10T03:35:54.974Z,98236.22
2023-03-10T03:38:24.313Z,98236.78
2023-03-10T03:40:52.536Z,98242.19
2023-03-10T03:43:20.432Z,98238.38
2023-03-10T03:45:48.396Z,98235.97
2023-03-10T03:48:16.672Z,98244.09
2023-03-10T03:50:44.840Z,98244.09
2023-03-10T03:53:12.817Z,98239.75
2023-03-10T03:55:42.843Z,98226.19
2023-03-10T03:58:10.731Z,98231.34
2023-03-10T04:00:40.145Z,98226.72
2023-03-10T04:03:08.101Z,98213.16
2023-03-10T04:05:35.993Z,98220.19
2023-03-10T04:08:03.878Z,98224.00
2023-03-10T04:10:32.116Z,98225.09
2023-03-10T04:13:01.381Z,98220.75
2023-03-10T04:15:29.450Z,98214.25
2023-03-10T04:17:57.860Z,98208.56
2023-03-10T04:20:26.255Z,98216.44
2023-03-10T04:22:54.171Z,98199.34
2023-03-10T04:25:22.150Z,98206.66
2023-03-10T04:27:50.054Z,98202.31
2023-03-10T04:30:20.535Z,98205.84
2023-03-10T04:32:49.315Z,98198.53
2023-03-10T04:35:17.366Z,98199.34
2023-03-10T04:37:45.591Z,98204.75
2023-03-10T04:40:14.998Z,98187.66
2023-03-10T04:42:42.923Z,98194.72
2023-03-10T04:45:11.958Z,98191.19
2023-03-10T04:47:41.275Z,98195.53
2023-03-10T04:50:11.093Z,98193.91
2023-03-10T04:52:39.286Z,98193.91
2023-03-10T04:55:08.282Z,98192.00
2023-03-10T04:57:36.193Z,98187.13
2023-03-10T05:00:05.806Z,98192.84
2023-03-10T05:02:33.773Z,98190.94
2023-03-10T05:05:03.059Z,98189.31
2023-03-10T05:07:30.927Z,98192.00
2023-03-10T05:09:59.220Z,98190.94
2023-03-10T05:12:27.120Z,98187.41
2023-03-10T05:14:55.027Z,98189.03
2023-03-10T05:17:22.901Z,98189.03
2023-03-10T05:19:51.144Z,98191.75
2023-03-10T05:22:20.436Z,98188.22
2023-03-10T05:24:49.894Z,98185.50
2023-03-10T05:27:19.709Z,98180.91
2023-03-10T05:29:48.169Z,98183.63
2023-03-10T05:32:16.140Z,98172.75
2023-03-10T05:34:44.067Z,98174.66
2023-03-10T05:37:12.322Z,98170.88
2023-03-10T05:39:43.818Z,98176.56
2023-03-10T05:42:12.321Z,98168.41
2023-03-10T05:44:40.322Z,98173.84
2023-03-10T05:47:08.639Z,98180.09
2023-03-10T05:49:38.704Z,98173.84
2023-03-10T05:52:07.473Z,98170.88
2023-03-10T05:54:35.699Z,98161.63
2023-03-10T05:57:05.633Z,98162.19
2023-03-10T05:59:33.819Z,98172.75
2023-03-10T06:02:02.135Z,98169.25
2023-03-10T06:04:33.256Z,98176.28
2023-03-10T06:07:01.740Z,98172.75
2023-03-10T06:09:30.410Z,98168.41
2023-03-10T06:11:58.576Z,98171.94
2023-03-10T06:14:28.001Z,98166.53
2023-03-10T06:16:56.073Z,98166.53
2023-03-10T06:19:24.284Z,98165.44
2023-03-10T06:21:54.170Z,98170.56
2023-03-10T06:24:22.111Z,98171.69
2023-03-10T06:26:50.167Z,98172.47
2023-03-10T06:29:18.047Z,98162.19
2023-03-10T06:31:47.363Z,98167.03
2023-03-10T06:34:15.442Z,98164.63
2023-03-10T06:36:43.455Z,98163.53
2023-03-10T06:39:11.704Z,98161.09
2023-03-10T06:41:39.625Z,98168.16
2023-03-10T06:44:07.544Z,98170.06
2023-03-10T06:46:35.688Z,98173.59
2023-03-10T06:49:05.225Z,98170.06
2023-03-10T06:51:33.114Z,98174.66
2023-03-10T06:54:01.046Z,98170.88
2023-03-10T06:56:28.939Z,98179.00
2023-03-10T06:58:57.215Z,98173.59
2023-03-10T07:01:26.138Z,98172.47
2023-03-10T07:03:54.191Z,98176.28
2023-03-10T07:06:23.490Z,98176.28
2023-03-10T07:08:51.920Z,98180.91
2023-03-10T07:11:19.892Z,98187.94
2023-03-10T07:13:47.835Z,98180.91
2023-03-10T07:16:15.899Z,98187.13
2023-03-10T07:18:44.203Z,98178.19
2023-03-10T07:21:12.567Z,98189.84
2023-03-10T07:23:41.896Z,98183.63
2023-03-10T07:26:09.796Z,98182.53
2023-03-10T07:28:38.352Z,98181.97
2023-03-10T07:31:06.801Z,98191.75
2023-03-10T07:33:34.736Z,98186.03
2023-03-10T07:36:05.648Z,98187.13
2023-03-10T07:38:33.581Z,98192.56
2023-03-10T07:41:03.882Z,98193.38
2023-03-10T07:43:32.332Z,98198.00
2023-03-10T07:46:00.342Z,98203.41
2023-03-10T07:48:28.321Z,98206.13
2023-03-10T07:50:59.784Z,98199.59
2023-03-10T07:53:27.688Z,98206.13
2023-03-10T07:55:55.615Z,98205.56
2023-03-10T07:58:25.432Z,98217.78
2023-03-10T08:00:57.094Z,98210.44
2023-03-10T08:03:25.156Z,98222.09
2023-03-10T08:05:53.068Z,98213.97
2023-03-10T08:08:21.160Z,98218.56
2023-03-10T08:10:49.346Z,98211.25
2023-03-10T08:13:17.335Z,98222.09
2023-03-10T08:15:46.709Z,98222.09
2023-03-10T08:18:14.595Z,98217.25
2023-03-10T08:20:42.770Z,98220.50
2023-03-10T08:23:10.706Z,98225.94
2023-03-10T08:25:39.090Z,98229.41
2023-03-10T08:28:06.984Z,98228.63
2023-03-10T08:30:35.419Z,98222.66
2023-03-10T08:33:07.634Z,98224.00
2023-03-10T08:35:35.741Z,98224.00
2023-03-10T08:38:04.158Z,98230.22
2023-03-10T08:40:32.489Z,98226.72
2023-03-10T08:43:00.420Z,98226.72
2023-03-10T08:45:28.469Z,98228.09
2023-03-10T08:47:56.355Z,98229.41
2023-03-10T08:50:25.969Z,98215.84
2023-03-10T08:52:53.847Z,98220.50
2023-03-10T08:55:21.885Z,98224.81
2023-03-10T08:57:49.821Z,98225.63
2023-03-10T09:00:19.137Z,98222.09
2023-03-10T09:02:47.436Z,98221.03
2023-03-10T09:05:15.399Z,98223.47
2023-03-10T09:07:44.809Z,98220.19
2023-03-10T09:10:13.023Z,98236.47
2023-03-10T09:12:40.969Z,98236.47
2023-03-10T09:15:10.376Z,98231.88
2023-03-10T09:17:40.578Z,98239.19
2023-03-10T09:20:10.500Z,98228.34
2023-03-10T09:22:38.555Z,98233.75
2023-03-10T09:25:08.498Z,98234.31
2023-03-10T09:27:37.909Z,98238.09
2023-03-10T09:30:08.046Z,98236.47
2023-03-10T09:32:36.059Z,98248.13
2023-03-10T09:35:04.316Z,98244.63
2023-03-10T09:37:32.408Z,98243.78
2023-03-10T09:40:00.656Z,98241.91
2023-03-10T09:42:38.289Z,98250.03
2023-03-10T09:45:17.712Z,98240.81
2023-03-10T09:47:51.891Z,98238.09
2023-03-10T09:50:24.370Z,98245.97
2023-03-10T09:52:58.415Z,98245.44
2023-03-10T09:55:28.408Z,98238.94
2023-03-10T09:57:57.915Z,98243.53
2023-03-10T10:00:27.988Z,98226.44
2023-03-10T10:03:01.426Z,98228.06
2023-03-10T10:05:32.797Z,98229.16
2023-03-10T10:08:02.170Z,98223.47
2023-03-10T10:10:30.906Z,98236.47
2023-03-10T10:13:02.946Z,98205.59
2023-03-10T10:15:35.355Z,98233.50
2023-03-10T10:18:18.390Z,98238.09
2023-03-10T10:20:49.917Z,98230.22
2023-03-10T10:23:22.886Z,98229.97
2023-03-10T10:25:50.743Z,98230.78
2023-03-10T10:28:25.196Z,98224.81
2023-03-10T10:30:53.212Z,98233.50
2023-03-10T10:33:21.135Z,98240.81
2023-03-10T10:36:01.244Z,98233.50
2023-03-10T10:38:30.113Z,98236.22
2023-03-10T10:41:05.173Z,98238.09
2023-03-10T10:43:41.233Z,98228.63
2023-03-10T10:46:09.654Z,98230.78
2023-03-10T10:48:39.391Z,98233.50
2023-03-10T10:51:07.909Z,98223.72
2023-03-10T10:53:43.574Z,98237.28
2023-03-10T10:56:15.057Z,98236.22
2023-03-10T10:58:44.814Z,98232.94
2023-03-10T11:01:13.508Z,98234.31
2023-03-10T11:03:41.632Z,98240.81
2023-03-10T11:06:16.778Z,98240.81
2023-03-10T11:08:50.964Z,98245.44
2023-03-10T11:11:25.676Z,98260.63
2023-03-10T11:14:05.237Z,98255.19
2023-03-10T11:16:37.840Z,98256.00
2023-03-10T11:19:09.221Z,98258.72
2023-03-10T11:21:38.595Z,98253.31
2023-03-10T11:24:10.045Z,98242.44
2023-03-10T11:26:46.075Z,98253.31
2023-03-10T11:29:20.702Z,98252.22
2023-03-10T11:31:51.830Z,98254.94
2023-03-10T11:34:21.412Z,98252.47
2023-03-10T11:36:56.724Z,98252.22
2023-03-10T11:39:29.965Z,98256.81
2023-03-10T11:42:00.794Z,98247.06
2023-03-10T11:44:32.629Z,98259.53
2023-03-10T11:47:02.460Z,98251.41
2023-03-10T11:49:45.708Z,98254.13
2023-03-10T11:52:15.517Z,98251.09
2023-03-10T11:54:45.059Z,98241.38
2023-03-10T11:57:15.307Z,98240.56
2023-03-10T11:59:48.294Z,98243.25
2023-03-10T12:02:18.812Z,98230.78
2023-03-10T12:04:48.251Z,98227.81
2023-03-10T12:07:18.306Z,98228.63
2023-03-10T12:09:47.346Z,98207.47
2023-03-10T12:12:17.225Z,98212.63
2023-03-10T12:14:46.531Z,98217.78
2023-03-10T12:17:15.518Z,98204.47
2023-03-10T12:20:10.735Z,98201.75
2023-03-10T12:22:39.156Z,98200.13
2023-03-10T12:25:42.377Z,98202.59
2023-03-10T12:28:24.350Z,98197.97
2023-03-10T12:30:56.451Z,98205.28
2023-03-10T12:33:47.398Z,98199.06
2023-03-10T12:36:28.580Z,98195.53
2023-03-10T12:38:57.594Z,98179.28
2023-03-10T12:41:46.994Z,98197.97
2023-03-10T12:44:45.763Z,98191.72
2023-03-10T12:47:19.180Z,98183.03
2023-03-10T12:49:49.832Z,98178.44
2023-03-10T12:52:22.423Z,98170.31
2023-03-10T12:54:57.155Z,98168.41
2023-03-10T12:57:29.905Z,98158.38
2023-03-10T13:00:00.261Z,98154.03
2023-03-10T13:02:34.292Z,98154.56
2023-03-10T13:05:04.174Z,98145.63
2023-03-10T13:07:32.353Z,98150.22
2023-03-10T13:10:02.323Z,98156.47
2023-03-10T13:12:32.054Z,98154.56
2023-03-10T13:15:01.149Z,98154.56
2023-03-10T13:17:29.816Z,98153.75
2023-03-10T13:20:01.188Z,98160.00
2023-03-10T13:22:29.191Z,98140.25
2023-03-10T13:25:01.503Z,98146.72
2023-03-10T13:27:30.955Z,98145.63
2023-03-10T13:30:01.939Z,98150.22
2023-03-10T13:32:30.280Z,98140.19
2023-03-10T13:34:59.971Z,98132.06
2023-03-10T13:37:27.975Z,98136.41
2023-03-10T13:40:08.468Z,98144.00
2023-03-10T13:42:43.901Z,98138.56
2023-03-10T13:45:22.090Z,98140.47
2023-03-10T13:47:50.099Z,98142.09
2023-03-10T13:50:19.740Z,98146.44
2023-03-10T13:52:54.361Z,98164.59
2023-03-10T13:55:22.415Z,98174.66
2023-03-10T13:57:50.363Z,98179.00
2023-03-10T14:00:19.603Z,98198.25
2023-03-10T14:02:48.055Z,98206.09
2023-03-10T14:05:39.492Z,98210.41
2023-03-10T14:08:07.620Z,98215.06
2023-03-10T14:10:35.929Z,98215.06
2023-03-10T14:13:03.840Z,98225.63
2023-03-10T14:15:38.201Z,98238.91
2023-03-10T14:18:19.605Z,98228.88
2023-03-10T14:20:49.253Z,98246.78
2023-03-10T14:23:28.099Z,98245.16
2023-03-10T14:25:56.764Z,98265.22
2023-03-10T14:28:25.977Z,98259.78
2023-03-10T14:30:54.535Z,98270.91
2023-03-10T14:33:22.712Z,98280.69
2023-03-10T14:35:52.031Z,98280.94
2023-03-10T14:38:20.020Z,98279.88
2023-03-10T14:40:50.145Z,98273.63
2023-03-10T14:43:19.829Z,98279.34
2023-03-10T14:45:48.204Z,98306.47
2023-03-10T14:48:18.208Z,98229.22
2023-03-10T14:50:46.335Z,98276.63
2023-03-10T14:53:16.707Z,98266.06
2023-03-10T14:55:45.361Z,98284.75
2023-03-10T14:58:14.204Z,98294.81
2023-03-10T15:00:42.393Z,98296.69
2023-03-10T15:03:10.918Z,98315.94
2023-03-10T15:05:48.322Z,98307.81
2023-03-10T15:08:18.150Z,98319.22
2023-03-10T15:10:48.254Z,98335.50
2023-03-10T15:13:16.449Z,98327.63
2023-03-10T15:15:45.731Z,98330.31
2023-03-10T15:18:15.094Z,98317.56
2023-03-10T15:20:43.023Z,98320.28
2023-03-10T15:23:13.878Z,98325.16
2023-03-10T15:25:46.008Z,98318.94
2023-03-10T15:28:14.243Z,98315.69
2023-03-10T15:30:42.513Z,98322.19
2023-03-10T15:33:10.780Z,98313.25
2023-03-10T15:35:39.896Z,98312.16
2023-03-10T15:38:07.813Z,98319.22
2023-03-10T15:40:39.098Z,98328.44
2023-03-10T15:43:08.921Z,98323.56
2023-03-10T15:45:39.556Z,98309.72
2023-03-10T15:48:07.665Z,98321.38
2023-03-10T15:50:35.938Z,98329.50
2023-03-10T15:53:03.999Z,98335.75
2023-03-10T15:55:31.890Z,98338.47
2023-03-10T15:57:59.776Z,98331.41
2023-03-10T16:00:29.619Z,98334.13
2023-03-10T16:02:57.561Z,98342.00
2023-03-10T16:05:25.526Z,98344.97
2023-03-10T16:07:53.459Z,98352.03
2023-03-10T16:10:21.837Z,98360.97
2023-03-10T16:12:49.800Z,98372.09
2023-03-10T16:15:18.494Z,98349.88
2023-03-10T16:17:47.851Z,98350.13
2023-03-10T16:20:19.047Z,98352.84
2023-03-10T16:22:47.004Z,98390.81
2023-03-10T16:25:15.633Z,98427.16
2023-03-10T16:27:43.576Z,98458.88
2023-03-10T16:30:12.950Z,98470.56
2023-03-10T16:32:40.975Z,98515.84
2023-03-10T16:35:10.981Z,98517.47
2023-03-10T16:37:38.854Z,98538.38
2023-03-10T16:40:08.507Z,98568.19
2023-03-10T16:42:36.842Z,98588.00
2023-03-10T16:45:04.873Z,98627.34
2023-03-10T16:47:32.801Z,98635.47
2023-03-10T16:50:01.024Z,98654.94
2023-03-10T16:52:30.657Z,98686.19
2023-03-10T16:54:58.694Z,98727.97
2023-03-10T16:57:26.670Z,98755.91
2023-03-10T16:59:54.861Z,98781.13
2023-03-10T17:02:22.706Z,98802.03
2023-03-10T17:04:50.668Z,98813.13
2023-03-10T17:07:19.291Z,98843.53
2023-03-10T17:09:49.463Z,98856.28
2023-03-10T17:12:17.640Z,98881.75
2023-03-10T17:14:45.546Z,98883.94
2023-03-10T17:17:14.023Z,98904.03
2023-03-10T17:19:42.648Z,98912.97
2023-03-10T17:22:10.539Z,98920.03
2023-03-10T17:24:38.436Z,98944.44
2023-03-10T17:27:07.753Z,98951.50
2023-03-10T17:29:36.166Z,98967.78
2023-03-10T17:32:04.083Z,98975.91
2023-03-10T17:34:32.051Z,98993.84
2023-03-10T17:37:00.005Z,99008.47
2023-03-10T17:39:29.022Z,99039.38
2023-03-10T17:41:56.969Z,99044.25
2023-03-10T17:44:26.272Z,99063.25
2023-03-10T17:46:55.928Z,99057.84
2023-03-10T17:49:24.244Z,99079.25
2023-03-10T17:51:52.189Z,99095.53
2023-03-10T17:54:21.185Z,99100.13
2023-03-10T17:56:49.398Z,99116.41
2023-03-10T17:59:17.599Z,99137.06
2023-03-10T18:01:46.873Z,99166.88
2023-03-10T18:04:14.837Z,99178.81
2023-03-10T18:06:42.793Z,99179.63
2023-03-10T18:09:13.192Z,99204.06
2023-03-10T18:11:41.148Z,99215.72
2023-03-10T18:14:09.118Z,99219.78
2023-03-10T18:16:38.942Z,99245.84
2023-03-10T18:19:10.640Z,99251.50
2023-03-10T18:21:38.976Z,99275.69
2023-03-10T18:24:08.317Z,99284.31
2023-03-10T18:26:36.714Z,99287.59
2023-03-10T18:29:04.913Z,99305.75
2023-03-10T18:31:33.642Z,99331.00
2023-03-10T18:34:01.660Z,99350.22
2023-03-10T18:36:31.003Z,99347.53
2023-03-10T18:38:59.205Z,99361.31
2023-03-10T18:41:29.373Z,99378.44
2023-03-10T18:43:57.281Z,99389.03
2023-03-10T18:46:25.370Z,99408.63
2023-03-10T18:48:55.826Z,99407.78
2023-03-10T18:51:24.529Z,99414.03
2023-03-10T18:53:53.815Z,99420.25
2023-03-10T18:56:22.455Z,99430.06
2023-03-10T18:58:50.660Z,99443.88
2023-03-10T19:01:18.559Z,99454.75
2023-03-10T19:03:46.454Z,99453.91
2023-03-10T19:06:14.310Z,99463.94
2023-03-10T19:08:42.586Z,99474.53
2023-03-10T19:11:12.153Z,99483.75
2023-03-10T19:13:40.588Z,99484.81
2023-03-10T19:16:08.835Z,99499.22
2023-03-10T19:18:36.940Z,99504.63
2023-03-10T19:21:05.251Z,99514.66
2023-03-10T19:23:34.022Z,99523.63
2023-03-10T19:26:01.960Z,99533.66
2023-03-10T19:28:31.294Z,99539.09
2023-03-10T19:30:59.516Z,99529.88
2023-03-10T19:33:27.494Z,99541.78
2023-03-10T19:36:01.471Z,99546.16
2023-03-10T19:38:29.401Z,99563.50
2023-03-10T19:40:57.266Z,99568.94
2023-03-10T19:43:25.148Z,99575.66
2023-03-10T19:45:59.846Z,99590.41
2023-03-10T19:48:27.787Z,99598.78
2023-03-10T19:50:56.003Z,99606.91
2023-03-10T19:53:23.984Z,99616.72
2023-03-10T19:55:54.928Z,99629.44
2023-03-10T19:58:22.944Z,99625.91
2023-03-10T20:00:52.188Z,99619.66
2023-03-10T20:03:21.579Z,99633.22
2023-03-10T20:05:49.524Z,99643.00
2023-03-10T20:08:17.397Z,99644.06
2023-03-10T20:10:45.894Z,99611.09
2023-03-10T20:13:13.859Z,99650.31
2023-03-10T20:15:41.794Z,99652.22
2023-03-10T20:18:09.719Z,99663.88
2023-03-10T20:20:39.242Z,99659.53
2023-03-10T20:23:07.125Z,99663.88
2023-03-10T20:25:35.017Z,99665.78
2023-03-10T20:28:02.963Z,99677.47
2023-03-10T20:30:32.061Z,99683.94
2023-03-10T20:33:00.726Z,99688.31
2023-03-10T20:35:29.708Z,99698.09
2023-03-10T20:37:59.157Z,99696.44
2023-03-10T20:40:27.317Z,99711.91
2023-03-10T20:42:56.504Z,99714.38
2023-03-10T20:45:24.439Z,99720.63
2023-03-10T20:47:53.195Z,99726.06
2023-03-10T20:50:21.819Z,99725.22
2023-03-10T20:52:49.839Z,99735.25
2023-03-10T20:55:20.247Z,99737.97
2023-03-10T20:57:48.360Z,99743.41
2023-03-10T21:00:17.593Z,99745.06
2023-03-10T21:02:45.684Z,99753.44
2023-03-10T21:05:13.622Z,99753.19
2023-03-10T21:07:41.622Z,99755.09
2023-03-10T21:10:11.508Z,99753.19
2023-03-10T21:12:40.775Z,99774.91
2023-03-10T21:15:13.115Z,99767.81
2023-03-10T21:17:40.990Z,99757.78
2023-03-10T21:20:11.311Z,99776.78
2023-03-10T21:22:40.741Z,99774.91
2023-03-10T21:25:10.242Z,99768.88
2023-03-10T21:27:38.144Z,99785.75
2023-03-10T21:30:11.143Z,99794.69
2023-03-10T21:32:39.433Z,99789.53
2023-03-10T21:35:08.296Z,99787.63
2023-03-10T21:37:38.382Z,99799.31
2023-03-10T21:40:09.586Z,99802.84
2023-03-10T21:42:37.542Z,99797.66
2023-03-10T21:45:09.404Z,99806.88
2023-03-10T21:47:37.322Z,99819.38
2023-03-10T21:50:05.573Z,99825.63
2023-03-10T21:52:33.484Z,99829.41
2023-03-10T21:55:01.489Z,99848.97
2023-03-10T21:57:29.387Z,99847.34
2023-03-10T21:59:57.592Z,99858.19
2023-03-10T22:02:27.996Z,99867.16
2023-03-10T22:04:56.069Z,99865.50
2023-03-10T22:07:24.028Z,99886.38
2023-03-10T22:09:51.977Z,99882.59
2023-03-10T22:12:19.922Z,99881.78
2023-03-10T22:14:50.233Z,99891.19
2023-03-10T22:17:18.239Z,99899.13
2023-03-10T22:19:49.522Z,99890.16
2023-03-10T22:22:17.503Z,99898.88
2023-03-10T22:24:45.390Z,99904.53
2023-03-10T22:27:13.302Z,99911.03
2023-03-10T22:29:41.213Z,99914.34
2023-03-10T22:32:09.149Z,99913.50
2023-03-10T22:34:37.075Z,99919.78
2023-03-10T22:37:06.535Z,99924.38
2023-03-10T22:39:34.506Z,99922.47
2023-03-10T22:42:02.384Z,99929.78
2023-03-10T22:44:34.826Z,99933.34
2023-03-10T22:47:02.780Z,99942.31
2023-03-10T22:49:31.002Z,99944.19
2023-03-10T22:51:58.994Z,99945.25
2023-03-10T22:54:28.495Z,99946.28
2023-03-10T22:56:56.381Z,99952.56
2023-03-10T22:59:24.628Z,99965.28
2023-03-10T23:01:52.748Z,99969.88
2023-03-10T23:04:20.685Z,99979.91
2023-03-10T23:06:48.615Z,99971.19
2023-03-10T23:09:16.779Z,99972.84
2023-03-10T23:11:46.804Z,99981.00
2023-03-10T23:14:14.692Z,99981.00
2023-03-10T23:16:42.639Z,99981.78
2023-03-10T23:19:10.825Z,99983.72
2023-03-10T23:21:38.728Z,99987.22
2023-03-10T23:24:07.524Z,99973.53
2023-03-10T23:26:37.386Z,99973.91
2023-03-10T23:29:07.013Z,99991.03
2023-03-10T23:31:34.923Z,100001.88
2023-03-10T23:34:02.876Z,99992.91
2023-03-10T23:36:30.964Z,99991.47
2023-03-10T23:38:59.178Z,100003.75
2023-03-10T23:41:27.092Z,99999.81
2023-03-10T23:43:55.109Z,100008.56
2023-03-10T23:46:24.674Z,100027.56
2023-03-10T23:48:53.058Z,100026.50
2023-03-10T23:51:20.966Z,100033.81
2023-03-10T23:53:48.891Z,100039.25
2023-03-10T23:56:16.767Z,100033.81
2023-03-10T23:58:44.937Z,100049.28
